createdAt,value
2022-12-08T00:00:48.548Z,100626.31
2022-12-08T00:06:09.680Z,100603.53
2022-12-08T00:11:15.590Z,100571.63
2022-12-08T00:16:17.972Z,100596.31
2022-12-08T00:21:20.421Z,100610.59
2022-12-08T00:26:23.109Z,100626.31
2022-12-08T00:31:25.419Z,100612.44
2022-12-08T00:36:28.634Z,100610.38
2022-12-08T00:41:49.352Z,100636.41
2022-12-08T00:46:51.639Z,100613.19
2022-12-08T00:51:54.170Z,100627.50
2022-12-08T00:56:58.755Z,100615.28
2022-12-08T01:02:06.900Z,100657.03
2022-12-08T01:07:09.292Z,100571.16
2022-12-08T01:12:11.735Z,100622.53
2022-12-08T01:17:14.084Z,100629.84
2022-12-08T01:22:16.444Z,100646.88
2022-12-08T01:27:18.792Z,100637.22
2022-12-08T01:32:21.265Z,100571.69
2022-12-08T01:37:23.574Z,100647.06
2022-12-08T01:42:26.274Z,100654.44
2022-12-08T01:47:35.755Z,100582.50
2022-12-08T01:52:47.212Z,100635.75
2022-12-08T01:57:56.882Z,100639.28
2022-12-08T02:03:03.005Z,100595.69
2022-12-08T02:08:08.948Z,100592.84
2022-12-08T02:13:17.392Z,100576.22
2022-12-08T02:18:25.216Z,100619.94
2022-12-08T02:23:33.410Z,100623.72
2022-12-08T02:28:48.262Z,100614.66
2022-12-08T02:34:44.309Z,100604.38
2022-12-08T02:39:57.892Z,100578.38
2022-12-08T02:45:15.260Z,100576.69
2022-12-08T02:50:17.551Z,100595.56
2022-12-08T02:55:31.403Z,100596.16
2022-12-08T03:01:07.801Z,100557.53
2022-12-08T03:06:26.120Z,100576.06
2022-12-08T03:11:40.537Z,100552.91
2022-12-08T03:16:46.209Z,100591.97
2022-12-08T03:21:52.301Z,100601.38
2022-12-08T03:27:03.298Z,100592.66
2022-12-08T03:32:34.089Z,100611.66
2022-12-08T03:37:40.426Z,100610.59
2022-12-08T03:42:42.845Z,100578.25
2022-12-08T03:47:45.225Z,100605.41
2022-12-08T03:52:47.715Z,100622.66
2022-12-08T03:57:50.065Z,100560.97
2022-12-08T04:02:52.342Z,100608.28
2022-12-08T04:07:58.488Z,100613.19
2022-12-08T04:13:00.909Z,100602.34
2022-12-08T04:18:03.180Z,100562.00
2022-12-08T04:23:05.517Z,100580.75
2022-12-08T04:28:08.137Z,100609.91
2022-12-08T04:33:10.562Z,100537.41
2022-12-08T04:38:13.481Z,100654.09
2022-12-08T04:43:15.932Z,100609.16
2022-12-08T04:48:18.672Z,100592.00
2022-12-08T04:53:21.756Z,100622.28
2022-12-08T04:58:23.994Z,100619.66
2022-12-08T05:03:28.747Z,100632.31
2022-12-08T05:08:31.420Z,100618.97
2022-12-08T05:13:34.233Z,100646.50
2022-12-08T05:18:38.047Z,100595.25
2022-12-08T05:23:40.693Z,100601.94
2022-12-08T05:28:43.735Z,100630.47
2022-12-08T05:33:46.963Z,100630.88
2022-12-08T05:38:49.397Z,100575.75
2022-12-08T05:43:51.797Z,100573.59
2022-12-08T05:48:54.052Z,100644.66
2022-12-08T05:53:57.251Z,100616.84
2022-12-08T05:58:59.718Z,100648.75
2022-12-08T06:04:04.594Z,100601.06
2022-12-08T06:09:07.399Z,100653.81
2022-12-08T06:14:12.779Z,100613.31
2022-12-08T06:19:16.525Z,100621.84
2022-12-08T06:24:18.946Z,100640.25
2022-12-08T06:29:21.444Z,100694.16
2022-12-08T06:34:23.802Z,100646.41
2022-12-08T06:39:26.128Z,100654.59
2022-12-08T06:44:28.480Z,100668.78
2022-12-08T06:49:30.765Z,100655.38
2022-12-08T06:54:33.095Z,100623.25
2022-12-08T06:59:35.482Z,100694.25
2022-12-08T07:04:38.004Z,100694.25
2022-12-08T07:09:40.261Z,100638.69
2022-12-08T07:14:42.524Z,100689.69
2022-12-08T07:19:45.113Z,100685.81
2022-12-08T07:24:47.493Z,100709.53
2022-12-08T07:29:49.849Z,100695.19
2022-12-08T07:34:52.308Z,100705.53
2022-12-08T07:39:54.664Z,100734.38
2022-12-08T07:44:56.894Z,100702.13
2022-12-08T07:49:59.441Z,100711.00
2022-12-08T07:55:01.864Z,100689.63
2022-12-08T08:00:05.983Z,100734.91
2022-12-08T08:05:09.231Z,100710.47
2022-12-08T08:10:12.620Z,100711.69
2022-12-08T08:15:15.078Z,100724.94
2022-12-08T08:20:18.335Z,100720.34
2022-12-08T08:25:23.370Z,100715.28
2022-12-08T08:30:25.794Z,100756.53
2022-12-08T08:35:31.283Z,100744.56
2022-12-08T08:40:33.606Z,100759.28
2022-12-08T08:45:36.397Z,100744.91
2022-12-08T08:50:38.678Z,100719.72
2022-12-08T08:55:41.046Z,100711.97
2022-12-08T09:00:43.541Z,100763.28
2022-12-08T09:05:46.953Z,100726.28
2022-12-08T09:10:49.511Z,100706.84
2022-12-08T09:15:51.861Z,100711.41
2022-12-08T09:20:55.092Z,100673.81
2022-12-08T09:25:57.486Z,100716.94
2022-12-08T09:30:59.934Z,100674.97
2022-12-08T09:36:04.553Z,100692.88
2022-12-08T09:41:18.373Z,100728.41
2022-12-08T09:46:21.308Z,100737.06
2022-12-08T09:51:31.225Z,100708.78
2022-12-08T09:56:34.201Z,100738.88
2022-12-08T10:01:42.198Z,100702.44
2022-12-08T10:07:09.083Z,100698.84
2022-12-08T10:12:26.653Z,100702.09
2022-12-08T10:17:36.753Z,100661.44
2022-12-08T10:22:44.452Z,100652.28
2022-12-08T10:27:51.341Z,100654.34
2022-12-08T10:38:41.405Z,100680.97
2022-12-08T10:54:39.463Z,100662.19
2022-12-08T11:16:01.289Z,100616.94
2022-12-08T11:21:20.612Z,100639.53
2022-12-08T11:48:57.347Z,100609.97
2022-12-08T11:54:23.070Z,100592.06
2022-12-08T12:05:05.261Z,100590.88
2022-12-08T12:10:33.204Z,100589.22
2022-12-08T12:15:57.790Z,100595.25
2022-12-08T12:21:13.148Z,100569.94
2022-12-08T12:26:28.722Z,100565.97
2022-12-08T12:31:42.322Z,100562.66
2022-12-08T12:36:59.307Z,100573.66
2022-12-08T12:42:03.094Z,100534.66
2022-12-08T12:47:11.858Z,100586.50
2022-12-08T12:52:16.869Z,100584.84
2022-12-08T12:57:19.168Z,100599.19
2022-12-08T13:02:21.401Z,100577.59
2022-12-08T13:07:27.667Z,100557.88
2022-12-08T13:12:30.683Z,100531.28
2022-12-08T13:17:37.073Z,100567.88
2022-12-08T13:22:54.911Z,100558.28
2022-12-08T13:27:57.529Z,100569.91
2022-12-08T13:33:17.842Z,100571.59
2022-12-08T13:38:27.092Z,100531.13
2022-12-08T13:43:55.585Z,100568.47
2022-12-08T13:50:55.398Z,100560.59
2022-12-08T14:00:06.142Z,100584.69
2022-12-08T14:05:18.024Z,100593.78
2022-12-08T14:10:26.498Z,100600.84
2022-12-08T14:15:34.007Z,100547.91
2022-12-08T14:21:12.269Z,100583.19
2022-12-08T14:26:03.946Z,100554.56
2022-12-08T14:31:06.922Z,100576.16
2022-12-08T14:36:10.809Z,100581.34
2022-12-08T14:41:13.153Z,100532.78
2022-12-08T14:46:24.303Z,100585.25
2022-12-08T14:51:31.231Z,100602.84
2022-12-08T14:56:52.290Z,100625.69
2022-12-08T15:02:10.507Z,100609.25
2022-12-08T15:07:14.778Z,100564.19
2022-12-08T15:12:27.259Z,100601.31
2022-12-08T15:18:00.467Z,100591.53
2022-12-08T15:23:03.131Z,100600.09
2022-12-08T15:28:05.655Z,100584.47
2022-12-08T15:33:07.981Z,100585.00
2022-12-08T15:38:36.721Z,100623.56
2022-12-08T15:43:39.950Z,100590.25
2022-12-08T15:48:42.388Z,100573.44
2022-12-08T15:53:44.686Z,100607.50
2022-12-08T15:58:56.157Z,100572.50
2022-12-08T16:04:37.003Z,100594.31
2022-12-08T16:09:43.964Z,100605.47
2022-12-08T16:15:47.277Z,100578.47
2022-12-08T16:20:15.948Z,100602.91
2022-12-08T16:25:20.328Z,100578.72
2022-12-08T16:30:24.013Z,100654.59
2022-12-08T16:35:26.287Z,100611.28
2022-12-08T16:40:28.726Z,100610.47
2022-12-08T16:45:31.215Z,100616.53
2022-12-08T16:50:35.773Z,100668.22
2022-12-08T16:55:38.160Z,100667.91
2022-12-08T17:00:41.011Z,100653.34
2022-12-08T17:05:45.053Z,100655.63
2022-12-08T17:11:07.571Z,100642.69
2022-12-08T17:16:17.039Z,100684.81
2022-12-08T17:21:19.689Z,100608.34
2022-12-08T17:26:21.924Z,100632.88
2022-12-08T17:31:29.369Z,100674.69
2022-12-08T17:36:32.533Z,100635.81
2022-12-08T17:41:35.455Z,100698.34
2022-12-08T17:46:42.086Z,100705.72
2022-12-08T17:51:54.176Z,100692.50
2022-12-08T17:56:58.968Z,100690.28
2022-12-08T18:02:01.836Z,100667.16
2022-12-08T18:07:04.741Z,100666.22
2022-12-08T18:12:07.330Z,100667.69
2022-12-08T18:17:09.653Z,100674.09
2022-12-08T18:22:12.714Z,100699.06
2022-12-08T18:27:15.232Z,100648.72
2022-12-08T18:32:17.608Z,100715.00
2022-12-08T18:37:20.123Z,100716.47
2022-12-08T18:42:25.347Z,100718.00
2022-12-08T18:47:27.664Z,100701.41
2022-12-08T18:52:32.298Z,100659.44
2022-12-08T18:57:37.918Z,100672.25
2022-12-08T19:02:40.515Z,100704.25
2022-12-08T19:07:43.346Z,100696.88
2022-12-08T19:12:45.766Z,100727.44
2022-12-08T19:17:48.464Z,100680.84
2022-12-08T19:22:50.784Z,100718.09
2022-12-08T19:27:53.137Z,100713.34
2022-12-08T19:32:55.512Z,100677.13
2022-12-08T19:37:57.775Z,100689.84
2022-12-08T19:43:18.567Z,100700.94
2022-12-08T19:48:23.972Z,100720.09
2022-12-08T19:53:26.570Z,100705.50
2022-12-08T19:58:28.917Z,100685.25
2022-12-08T20:03:31.368Z,100723.59
2022-12-08T20:08:33.793Z,100694.13
2022-12-08T20:13:46.473Z,100711.50
2022-12-08T20:18:49.373Z,100698.13
2022-12-08T20:23:51.871Z,100706.19
2022-12-08T20:28:54.454Z,100709.97
2022-12-08T20:33:56.925Z,100731.59
2022-12-08T20:38:59.246Z,100714.28
2022-12-08T20:44:01.755Z,100735.19
2022-12-08T20:49:05.748Z,100758.38
2022-12-08T20:54:10.246Z,100735.47
2022-12-08T20:59:18.105Z,100738.84
2022-12-08T21:04:21.768Z,100764.88
2022-12-08T21:09:24.487Z,100741.91
2022-12-08T21:14:27.093Z,100742.22
2022-12-08T21:19:29.600Z,100759.19
2022-12-08T21:24:34.399Z,100695.06
2022-12-08T21:29:37.386Z,100745.31
2022-12-08T21:34:40.089Z,100710.75
2022-12-08T21:39:42.531Z,100743.88
2022-12-08T21:44:45.070Z,100745.97
2022-12-08T21:49:47.432Z,100709.72
2022-12-08T21:54:50.628Z,100742.91
2022-12-08T21:59:53.135Z,100749.56
2022-12-08T22:04:55.632Z,100716.69
2022-12-08T22:09:58.179Z,100746.38
2022-12-08T22:15:00.714Z,100745.06
2022-12-08T22:20:04.360Z,100767.09
2022-12-08T22:25:08.323Z,100764.50
2022-12-08T22:30:12.021Z,100740.97
2022-12-08T22:35:14.718Z,100746.72
2022-12-08T22:40:17.202Z,100765.09
2022-12-08T22:45:19.578Z,100725.88
2022-12-08T22:50:22.014Z,100752.44
2022-12-08T22:55:24.314Z,100728.09
2022-12-08T23:00:27.017Z,100779.69
2022-12-08T23:05:33.401Z,100726.78
2022-12-08T23:10:36.504Z,100791.38
2022-12-08T23:15:39.627Z,100781.47
2022-12-08T23:20:42.768Z,100777.38
2022-12-08T23:25:45.240Z,100734.44
2022-12-08T23:30:47.764Z,100716.63
2022-12-08T23:35:59.570Z,100744.03
2022-12-08T23:41:07.728Z,100748.38
2022-12-08T23:46:10.437Z,100737.63
2022-12-08T23:51:13.376Z,100742.13
2022-12-08T23:56:18.110Z,100725.81
